createdAt,value
2019-01-15T00:00:41.294Z,72.00
2019-01-15T00:01:45.635Z,72.10
2019-01-15T00:02:49.915Z,72.10
2019-01-15T00:03:54.186Z,72.10
2019-01-15T00:04:58.475Z,72.00
2019-01-15T00:06:02.747Z,72.10
2019-01-15T00:07:07.219Z,72.10
2019-01-15T00:08:11.532Z,72.20
2019-01-15T00:09:15.805Z,72.10
2019-01-15T00:10:20.160Z,72.10
2019-01-15T00:11:24.509Z,72.20
2019-01-15T00:12:28.864Z,72.10
2019-01-15T00:13:33.167Z,72.30
2019-01-15T00:14:37.477Z,72.40
2019-01-15T00:15:41.745Z,72.50
2019-01-15T00:16:46.027Z,72.60
2019-01-15T00:17:50.318Z,73.70
2019-01-15T00:18:54.634Z,73.10
2019-01-15T00:19:58.914Z,73.40
2019-01-15T00:21:03.325Z,73.70
2019-01-15T00:22:07.671Z,74.00
2019-01-15T00:23:11.938Z,75.00
2019-01-15T00:24:16.234Z,74.60
2019-01-15T00:25:20.498Z,74.70
2019-01-15T00:26:24.762Z,75.00
2019-01-15T00:27:29.029Z,75.30
2019-01-15T00:28:33.282Z,75.50
2019-01-15T00:29:37.554Z,75.70
2019-01-15T00:30:41.878Z,75.80
2019-01-15T00:31:46.165Z,75.90
2019-01-15T00:32:50.432Z,75.90
2019-01-15T00:33:54.732Z,75.90
2019-01-15T00:34:59.060Z,75.70
2019-01-15T00:36:03.395Z,75.50
2019-01-15T00:37:07.665Z,75.20
2019-01-15T00:38:12.075Z,75.00
2019-01-15T00:39:16.346Z,75.60
2019-01-15T00:40:20.686Z,74.60
2019-01-15T00:41:25.039Z,74.50
2019-01-15T00:42:29.319Z,74.60
2019-01-15T00:43:33.595Z,74.70
2019-01-15T00:44:37.886Z,74.70
2019-01-15T00:45:42.145Z,74.70
2019-01-15T00:46:46.406Z,74.80
2019-01-15T00:47:50.682Z,74.90
2019-01-15T00:48:54.959Z,75.00
2019-01-15T00:49:59.229Z,75.10
2019-01-15T00:51:03.567Z,75.20
2019-01-15T00:52:07.906Z,75.30
2019-01-15T00:53:12.177Z,76.20
2019-01-15T00:54:16.445Z,75.50
2019-01-15T00:55:20.713Z,75.50
2019-01-15T00:56:25.241Z,75.60
2019-01-15T00:57:29.510Z,75.60
2019-01-15T00:58:33.773Z,75.70
2019-01-15T00:59:38.123Z,75.70
2019-01-15T01:00:42.466Z,75.80
2019-01-15T01:01:46.733Z,75.70
2019-01-15T01:02:51.613Z,75.90
2019-01-15T01:03:56.058Z,75.80
2019-01-15T01:05:00.409Z,76.00
2019-01-15T01:06:04.938Z,76.00
2019-01-15T01:07:09.201Z,76.10
2019-01-15T01:08:13.466Z,76.10
2019-01-15T01:09:19.375Z,76.30
2019-01-15T01:10:23.866Z,76.20
2019-01-15T01:11:28.714Z,76.40
2019-01-15T01:12:32.981Z,76.40
2019-01-15T01:13:37.250Z,76.50
2019-01-15T01:14:41.522Z,76.50
2019-01-15T01:15:45.874Z,76.50
2019-01-15T01:16:50.145Z,76.60
2019-01-15T01:17:54.489Z,76.70
2019-01-15T01:18:58.754Z,76.90
2019-01-15T01:20:03.025Z,77.10
2019-01-15T01:21:07.375Z,77.30
2019-01-15T01:22:11.648Z,77.40
2019-01-15T01:23:15.985Z,77.60
2019-01-15T01:24:20.257Z,77.90
2019-01-15T01:25:24.518Z,78.10
2019-01-15T01:26:28.802Z,78.30
2019-01-15T01:27:33.062Z,78.50
2019-01-15T01:28:37.334Z,78.70
2019-01-15T01:29:41.604Z,78.80
2019-01-15T01:30:45.866Z,79.00
2019-01-15T01:31:50.210Z,79.20
2019-01-15T01:32:54.479Z,79.30
2019-01-15T01:33:58.740Z,79.40
2019-01-15T01:35:03.006Z,79.40
2019-01-15T01:36:07.337Z,79.50
2019-01-15T01:37:11.622Z,79.50
2019-01-15T01:38:15.886Z,79.30
2019-01-15T01:39:20.155Z,79.50
2019-01-15T01:40:25.133Z,79.30
2019-01-15T01:41:29.409Z,79.40
2019-01-15T01:42:33.676Z,79.40
2019-01-15T01:43:38.085Z,79.30
2019-01-15T01:44:42.349Z,79.40
2019-01-15T01:45:46.615Z,79.30
2019-01-15T01:46:50.892Z,79.50
2019-01-15T01:47:55.155Z,79.40
2019-01-15T01:48:59.426Z,79.60
2019-01-15T01:50:04.617Z,79.60
2019-01-15T01:51:08.970Z,79.60
2019-01-15T01:52:13.242Z,79.70
2019-01-15T01:53:17.582Z,79.70
2019-01-15T01:54:21.849Z,79.80
2019-01-15T01:55:26.114Z,79.70
2019-01-15T01:56:30.378Z,79.70
2019-01-15T01:57:34.664Z,79.70
2019-01-15T01:58:38.917Z,79.70
2019-01-15T01:59:43.183Z,79.80
2019-01-15T02:00:47.523Z,79.80
2019-01-15T02:01:51.795Z,79.90
2019-01-15T02:02:56.055Z,79.80
2019-01-15T02:04:00.402Z,79.90
2019-01-15T02:05:05.774Z,79.90
2019-01-15T02:06:10.038Z,79.90
2019-01-15T02:07:14.333Z,80.10
2019-01-15T02:08:18.641Z,80.20
2019-01-15T02:09:22.898Z,80.10
2019-01-15T02:10:27.198Z,80.20
2019-01-15T02:11:31.514Z,80.40
2019-01-15T02:12:36.962Z,80.50
2019-01-15T02:13:41.567Z,80.70
2019-01-15T02:14:45.985Z,80.80
2019-01-15T02:15:50.259Z,80.80
2019-01-15T02:16:54.595Z,81.00
2019-01-15T02:17:58.870Z,81.10
2019-01-15T02:19:03.151Z,81.20
2019-01-15T02:20:09.146Z,81.30
2019-01-15T02:21:13.427Z,81.40
2019-01-15T02:22:17.739Z,81.40
2019-01-15T02:23:22.007Z,81.50
2019-01-15T02:24:26.446Z,81.70
2019-01-15T02:25:30.712Z,81.70
2019-01-15T02:26:35.039Z,81.60
2019-01-15T02:27:41.600Z,81.70
2019-01-15T02:28:46.035Z,81.80
2019-01-15T02:29:50.278Z,81.90
2019-01-15T02:30:54.546Z,81.90
2019-01-15T02:31:58.788Z,81.90
2019-01-15T02:33:03.127Z,81.90
2019-01-15T02:34:07.393Z,81.80
2019-01-15T02:35:11.851Z,81.80
2019-01-15T02:36:16.185Z,81.80
2019-01-15T02:37:20.431Z,81.70
2019-01-15T02:38:24.702Z,81.60
2019-01-15T02:39:28.971Z,81.60
2019-01-15T02:40:33.225Z,81.70
2019-01-15T02:41:37.471Z,81.70
2019-01-15T02:42:46.386Z,81.60
2019-01-15T02:43:47.765Z,81.70
2019-01-15T02:44:52.028Z,81.60
2019-01-15T02:45:56.267Z,81.60
2019-01-15T02:47:00.525Z,81.80
2019-01-15T02:48:05.146Z,81.70
2019-01-15T02:49:09.431Z,81.80
2019-01-15T02:50:15.238Z,81.80
2019-01-15T02:51:19.568Z,81.90
2019-01-15T02:52:23.808Z,82.00
2019-01-15T02:53:28.070Z,82.20
2019-01-15T02:54:32.306Z,82.40
2019-01-15T02:55:36.570Z,82.40
2019-01-15T02:56:40.826Z,82.50
2019-01-15T02:57:45.099Z,82.60
2019-01-15T02:58:50.034Z,82.70
2019-01-15T02:59:54.324Z,82.80
2019-01-15T03:00:58.626Z,82.90
2019-01-15T03:02:03.065Z,82.90
2019-01-15T03:03:07.304Z,82.90
2019-01-15T03:04:11.654Z,82.90
2019-01-15T03:05:16.283Z,82.80
2019-01-15T03:06:20.626Z,83.00
2019-01-15T03:07:24.880Z,83.00
2019-01-15T03:08:29.139Z,83.00
2019-01-15T03:09:33.415Z,82.90
2019-01-15T03:10:37.657Z,82.80
2019-01-15T03:11:41.934Z,82.90
2019-01-15T03:12:54.751Z,82.80
2019-01-15T03:13:55.190Z,82.80
2019-01-15T03:14:59.577Z,82.60
2019-01-15T03:16:04.169Z,82.60
2019-01-15T03:17:08.423Z,82.70
2019-01-15T03:18:12.660Z,82.70
2019-01-15T03:19:16.930Z,82.80
2019-01-15T03:20:21.347Z,82.90
2019-01-15T03:21:25.611Z,82.90
2019-01-15T03:22:29.875Z,82.90
2019-01-15T03:23:34.139Z,82.90
2019-01-15T03:24:38.415Z,82.80
2019-01-15T03:25:42.653Z,82.80
2019-01-15T03:26:46.890Z,82.80
2019-01-15T03:27:51.216Z,82.70
2019-01-15T03:28:55.530Z,82.60
2019-01-15T03:29:59.810Z,82.60
2019-01-15T03:31:04.151Z,82.70
2019-01-15T03:32:08.417Z,82.70
2019-01-15T03:33:12.676Z,82.80
2019-01-15T03:34:16.943Z,82.70
2019-01-15T03:35:21.275Z,82.90
2019-01-15T03:36:25.554Z,83.20
2019-01-15T03:37:29.818Z,83.30
2019-01-15T03:38:34.056Z,83.40
2019-01-15T03:39:38.483Z,83.40
2019-01-15T03:40:42.845Z,83.30
2019-01-15T03:41:47.115Z,83.20
2019-01-15T03:42:52.126Z,83.10
2019-01-15T03:43:56.682Z,83.00
2019-01-15T03:45:00.963Z,83.00
2019-01-15T03:46:05.422Z,82.80
2019-01-15T03:47:09.759Z,82.90
2019-01-15T03:48:14.076Z,83.00
2019-01-15T03:49:19.357Z,83.10
2019-01-15T03:50:23.694Z,83.30
2019-01-15T03:51:27.943Z,83.40
2019-01-15T03:52:32.282Z,83.30
2019-01-15T03:53:36.524Z,83.60
2019-01-15T03:54:40.888Z,83.60
2019-01-15T03:55:45.126Z,83.80
2019-01-15T03:56:49.386Z,83.90
2019-01-15T03:57:53.790Z,84.20
2019-01-15T03:58:58.062Z,84.40
2019-01-15T04:00:02.397Z,84.70
2019-01-15T04:01:06.705Z,84.80
2019-01-15T04:02:11.635Z,84.90
2019-01-15T04:03:15.884Z,84.90
2019-01-15T04:04:20.184Z,84.90
2019-01-15T04:05:24.585Z,84.80
2019-01-15T04:06:28.833Z,84.90
2019-01-15T04:07:33.074Z,84.80
2019-01-15T04:08:37.338Z,84.80
2019-01-15T04:09:41.673Z,84.60
2019-01-15T04:10:45.922Z,84.40
2019-01-15T04:11:50.247Z,84.50
2019-01-15T04:12:54.493Z,84.60
2019-01-15T04:13:58.778Z,84.80
2019-01-15T04:15:03.231Z,84.80
2019-01-15T04:16:07.687Z,85.00
2019-01-15T04:17:11.931Z,85.10
2019-01-15T04:18:16.187Z,85.40
2019-01-15T04:19:20.554Z,85.50
2019-01-15T04:20:24.881Z,85.80
2019-01-15T04:21:29.122Z,86.00
2019-01-15T04:22:33.375Z,86.20
2019-01-15T04:23:37.614Z,86.30
2019-01-15T04:24:41.884Z,86.50
2019-01-15T04:25:46.212Z,86.70
2019-01-15T04:26:50.542Z,87.00
2019-01-15T04:27:54.874Z,87.10
2019-01-15T04:28:59.130Z,87.30
2019-01-15T04:30:03.816Z,87.40
2019-01-15T04:31:08.069Z,87.40
2019-01-15T04:32:12.328Z,87.30
2019-01-15T04:33:16.587Z,87.40
2019-01-15T04:34:20.844Z,87.20
2019-01-15T04:35:25.263Z,87.10
2019-01-15T04:36:29.514Z,86.80
2019-01-15T04:37:33.751Z,86.60
2019-01-15T04:38:38.001Z,86.50
2019-01-15T04:39:42.238Z,86.30
2019-01-15T04:40:46.578Z,86.10
2019-01-15T04:41:50.834Z,85.90
2019-01-15T04:42:55.088Z,85.70
2019-01-15T04:43:59.339Z,85.60
2019-01-15T04:45:03.980Z,85.40
2019-01-15T04:46:08.234Z,85.10
2019-01-15T04:47:12.474Z,85.10
2019-01-15T04:48:16.736Z,84.90
2019-01-15T04:49:20.979Z,84.80
2019-01-15T04:50:25.238Z,84.60
2019-01-15T04:51:29.498Z,84.50
2019-01-15T04:52:33.826Z,84.40
2019-01-15T04:53:38.080Z,84.10
2019-01-15T04:54:42.342Z,83.90
2019-01-15T04:55:46.603Z,83.80
2019-01-15T04:56:51.431Z,83.60
2019-01-15T04:57:55.680Z,83.50
2019-01-15T04:58:59.938Z,83.40
2019-01-15T05:00:05.831Z,83.20
2019-01-15T05:01:10.090Z,83.00
2019-01-15T05:02:14.336Z,83.00
2019-01-15T05:03:18.668Z,83.00
2019-01-15T05:04:22.926Z,83.00
2019-01-15T05:05:27.182Z,83.00
2019-01-15T05:06:31.461Z,83.00
2019-01-15T05:07:35.724Z,82.90
2019-01-15T05:08:39.979Z,82.70
2019-01-15T05:09:44.222Z,83.60
2019-01-15T05:10:48.471Z,82.70
2019-01-15T05:11:52.714Z,82.50
2019-01-15T05:12:56.959Z,82.40
2019-01-15T05:14:01.215Z,82.30
2019-01-15T05:15:07.122Z,82.40
2019-01-15T05:16:11.626Z,82.80
2019-01-15T05:17:15.869Z,83.20
2019-01-15T05:18:20.116Z,83.50
2019-01-15T05:19:24.363Z,83.60
2019-01-15T05:20:28.622Z,83.90
2019-01-15T05:21:32.870Z,84.00
2019-01-15T05:22:37.186Z,84.00
2019-01-15T05:23:41.435Z,84.00
2019-01-15T05:24:45.701Z,84.10
2019-01-15T05:25:49.962Z,84.20
2019-01-15T05:26:54.210Z,84.10
2019-01-15T05:27:58.451Z,85.20
2019-01-15T05:29:02.696Z,84.80
2019-01-15T05:30:10.187Z,85.00
2019-01-15T05:31:14.458Z,85.20
2019-01-15T05:32:18.783Z,85.20
2019-01-15T05:33:23.094Z,85.10
2019-01-15T05:34:27.346Z,85.10
2019-01-15T05:35:31.598Z,85.10
2019-01-15T05:36:35.854Z,85.10
2019-01-15T05:37:40.099Z,85.00
2019-01-15T05:38:44.373Z,85.00
2019-01-15T05:39:48.617Z,85.00
2019-01-15T05:40:52.882Z,84.80
2019-01-15T05:41:57.142Z,85.20
2019-01-15T05:43:01.456Z,85.40
2019-01-15T05:44:05.870Z,85.90
2019-01-15T05:45:13.874Z,86.00
2019-01-15T05:46:18.181Z,86.00
2019-01-15T05:47:24.316Z,86.10
2019-01-15T05:48:36.554Z,86.20
2019-01-15T05:49:40.810Z,86.40
2019-01-15T05:51:02.934Z,86.40
2019-01-15T05:52:07.191Z,86.50
2019-01-15T05:53:11.450Z,86.80
2019-01-15T05:54:15.698Z,87.00
2019-01-15T05:55:19.958Z,87.20
2019-01-15T05:56:24.591Z,87.40
2019-01-15T05:57:28.829Z,87.50
2019-01-15T05:58:33.070Z,87.60
2019-01-15T05:59:37.339Z,87.70
2019-01-15T06:00:41.583Z,87.70
2019-01-15T06:01:45.847Z,87.80
2019-01-15T06:02:51.021Z,88.00
2019-01-15T06:03:55.343Z,88.10
2019-01-15T06:04:59.590Z,88.30
2019-01-15T06:06:04.192Z,88.70
2019-01-15T06:07:08.518Z,88.60
2019-01-15T06:08:12.783Z,88.70
2019-01-15T06:09:17.034Z,88.60
2019-01-15T06:10:21.278Z,88.80
2019-01-15T06:11:25.538Z,89.20
2019-01-15T06:12:29.790Z,89.70
2019-01-15T06:13:34.038Z,89.70
2019-01-15T06:14:38.280Z,89.90
2019-01-15T06:15:42.535Z,90.00
2019-01-15T06:16:46.802Z,90.00
2019-01-15T06:17:51.042Z,90.00
2019-01-15T06:18:55.290Z,90.10
2019-01-15T06:19:59.534Z,90.10
2019-01-15T06:21:03.786Z,90.10
2019-01-15T06:22:08.048Z,90.20
2019-01-15T06:23:12.294Z,90.30
2019-01-15T06:24:16.537Z,90.40
2019-01-15T06:25:20.791Z,90.40
2019-01-15T06:26:25.053Z,90.40
2019-01-15T06:27:29.302Z,90.50
2019-01-15T06:28:33.830Z,90.50
2019-01-15T06:29:38.066Z,90.60
2019-01-15T06:30:42.323Z,90.70
2019-01-15T06:31:46.597Z,90.80
2019-01-15T06:32:51.003Z,90.80
2019-01-15T06:33:55.722Z,90.90
2019-01-15T06:34:59.982Z,91.10
2019-01-15T06:36:04.402Z,91.10
2019-01-15T06:37:08.671Z,91.20
2019-01-15T06:38:13.063Z,91.30
2019-01-15T06:39:17.312Z,91.40
2019-01-15T06:40:21.623Z,91.50
2019-01-15T06:41:25.954Z,91.50
2019-01-15T06:42:30.205Z,91.60
2019-01-15T06:43:34.559Z,91.60
2019-01-15T06:44:38.892Z,91.60
2019-01-15T06:45:43.139Z,91.70
2019-01-15T06:46:47.390Z,91.70
2019-01-15T06:47:51.707Z,91.80
2019-01-15T06:48:55.975Z,91.90
2019-01-15T06:50:00.260Z,91.90
2019-01-15T06:51:04.782Z,92.00
2019-01-15T06:52:09.193Z,92.20
2019-01-15T06:53:13.527Z,92.30
2019-01-15T06:54:17.854Z,92.40
2019-01-15T06:55:22.110Z,92.40
2019-01-15T06:56:26.356Z,92.40
2019-01-15T06:57:30.614Z,92.80
2019-01-15T06:58:34.862Z,92.50
2019-01-15T06:59:39.107Z,92.50
2019-01-15T07:00:43.372Z,92.50
2019-01-15T07:01:47.622Z,92.60
2019-01-15T07:02:51.955Z,92.70
2019-01-15T07:03:56.199Z,92.80
2019-01-15T07:05:00.665Z,92.80
2019-01-15T07:06:05.089Z,92.80
2019-01-15T07:07:09.406Z,92.80
2019-01-15T07:08:13.726Z,92.90
2019-01-15T07:09:17.970Z,92.90
2019-01-15T07:10:27.878Z,92.90
2019-01-15T07:11:32.190Z,93.00
2019-01-15T07:12:36.462Z,93.00
2019-01-15T07:13:40.714Z,93.00
2019-01-15T07:14:44.957Z,93.00
2019-01-15T07:15:50.854Z,93.10
2019-01-15T07:16:55.174Z,93.20
2019-01-15T07:17:59.430Z,93.20
2019-01-15T07:19:03.712Z,93.20
2019-01-15T07:20:09.090Z,93.10
2019-01-15T07:21:13.335Z,93.10
2019-01-15T07:22:17.602Z,93.10
2019-01-15T07:23:21.862Z,93.00
2019-01-15T07:24:26.108Z,93.00
2019-01-15T07:25:30.585Z,93.00
2019-01-15T07:26:34.822Z,93.00
2019-01-15T07:27:39.083Z,93.00
2019-01-15T07:28:43.326Z,92.90
2019-01-15T07:29:47.574Z,92.90
2019-01-15T07:30:54.139Z,92.90
2019-01-15T07:31:58.383Z,92.90
2019-01-15T07:33:02.647Z,92.80
2019-01-15T07:34:06.907Z,92.80
2019-01-15T07:35:11.230Z,92.70
2019-01-15T07:36:15.474Z,92.80
2019-01-15T07:37:19.722Z,92.80
2019-01-15T07:38:23.989Z,92.80
2019-01-15T07:39:28.231Z,92.80
2019-01-15T07:40:32.633Z,93.20
2019-01-15T07:41:37.239Z,92.80
2019-01-15T07:42:41.677Z,92.90
2019-01-15T07:43:45.938Z,92.90
2019-01-15T07:44:50.190Z,92.90
2019-01-15T07:45:54.438Z,93.00
2019-01-15T07:46:58.694Z,93.00
2019-01-15T07:48:03.025Z,93.10
2019-01-15T07:49:07.408Z,93.10
2019-01-15T07:50:14.638Z,93.20
2019-01-15T07:51:18.967Z,93.20
2019-01-15T07:52:23.287Z,93.20
2019-01-15T07:53:27.619Z,93.30
2019-01-15T07:54:31.861Z,93.20
2019-01-15T07:55:36.126Z,93.30
2019-01-15T07:56:40.370Z,93.30
2019-01-15T07:57:44.656Z,93.30
2019-01-15T07:58:48.887Z,93.30
2019-01-15T07:59:53.130Z,93.30
2019-01-15T08:00:57.466Z,93.40
2019-01-15T08:02:01.802Z,93.40
2019-01-15T08:03:06.222Z,93.50
2019-01-15T08:04:10.478Z,93.30
2019-01-15T08:05:15.681Z,93.30
2019-01-15T08:06:19.989Z,93.30
2019-01-15T08:07:24.230Z,93.30
2019-01-15T08:08:28.583Z,93.30
2019-01-15T08:09:32.829Z,93.30
2019-01-15T08:10:37.069Z,93.20
2019-01-15T08:11:41.330Z,93.20
2019-01-15T08:12:45.922Z,93.10
2019-01-15T08:13:50.170Z,93.00
2019-01-15T08:14:54.505Z,93.30
2019-01-15T08:15:58.886Z,93.30
2019-01-15T08:17:03.135Z,93.00
2019-01-15T08:18:07.390Z,92.90
2019-01-15T08:19:11.674Z,93.00
2019-01-15T08:20:16.110Z,93.00
2019-01-15T08:21:20.352Z,93.00
2019-01-15T08:22:24.594Z,92.90
2019-01-15T08:23:28.954Z,92.90
2019-01-15T08:24:33.194Z,92.90
2019-01-15T08:25:37.444Z,92.90
2019-01-15T08:26:41.690Z,92.90
2019-01-15T08:27:45.942Z,92.80
2019-01-15T08:28:50.206Z,92.80
2019-01-15T08:29:54.446Z,92.70
2019-01-15T08:30:58.690Z,92.60
2019-01-15T08:32:03.134Z,92.50
2019-01-15T08:33:07.517Z,92.50
2019-01-15T08:34:11.766Z,92.50
2019-01-15T08:35:16.081Z,92.40
2019-01-15T08:36:20.327Z,92.40
2019-01-15T08:37:24.562Z,92.50
2019-01-15T08:38:28.907Z,92.40
2019-01-15T08:39:33.141Z,92.40
2019-01-15T08:40:38.045Z,92.30
2019-01-15T08:41:42.290Z,92.20
2019-01-15T08:42:46.525Z,92.10
2019-01-15T08:43:50.860Z,92.10
2019-01-15T08:44:55.282Z,92.20
2019-01-15T08:45:59.541Z,92.00
2019-01-15T08:47:03.774Z,92.00
2019-01-15T08:48:21.657Z,92.00
2019-01-15T08:49:25.989Z,92.00
2019-01-15T08:50:30.490Z,91.90
2019-01-15T08:51:35.084Z,91.90
2019-01-15T08:52:39.402Z,91.80
2019-01-15T08:53:43.831Z,91.70
2019-01-15T08:54:48.184Z,91.70
2019-01-15T08:55:56.058Z,91.60
2019-01-15T08:57:00.458Z,91.70
2019-01-15T08:58:04.874Z,91.60
2019-01-15T08:59:09.141Z,91.60
2019-01-15T09:00:14.094Z,91.60
2019-01-15T09:01:18.339Z,91.60
2019-01-15T09:02:22.587Z,91.60
2019-01-15T09:03:26.834Z,91.70
2019-01-15T09:04:31.087Z,91.80
2019-01-15T09:05:35.386Z,91.80
2019-01-15T09:06:39.663Z,91.90
2019-01-15T09:07:43.974Z,92.00
2019-01-15T09:08:48.316Z,92.00
2019-01-15T09:09:52.553Z,92.10
2019-01-15T09:10:56.795Z,92.30
2019-01-15T09:12:01.107Z,92.30
2019-01-15T09:13:05.509Z,92.40
2019-01-15T09:14:09.780Z,92.50
2019-01-15T09:15:15.325Z,92.60
2019-01-15T09:16:19.730Z,92.60
2019-01-15T09:17:24.113Z,92.70
2019-01-15T09:18:28.858Z,92.70
2019-01-15T09:19:33.195Z,92.70
2019-01-15T09:20:37.507Z,92.80
2019-01-15T09:21:41.762Z,92.90
2019-01-15T09:22:46.218Z,92.90
2019-01-15T09:23:50.478Z,93.00
2019-01-15T09:24:54.717Z,93.00
2019-01-15T09:25:59.038Z,93.00
2019-01-15T09:27:03.914Z,93.00
2019-01-15T09:28:08.234Z,93.10
2019-01-15T09:29:12.502Z,93.10
2019-01-15T09:30:18.822Z,93.10
2019-01-15T09:31:23.079Z,93.10
2019-01-15T09:32:27.326Z,93.00
2019-01-15T09:33:31.569Z,93.00
2019-01-15T09:34:35.826Z,93.00
2019-01-15T09:35:40.082Z,93.10
2019-01-15T09:36:44.334Z,93.00
2019-01-15T09:37:50.031Z,93.00
2019-01-15T09:38:54.289Z,93.00
2019-01-15T09:39:58.542Z,93.00
2019-01-15T09:41:02.783Z,93.10
2019-01-15T09:42:07.106Z,93.00
2019-01-15T09:43:11.346Z,93.10
2019-01-15T09:44:15.606Z,93.20
2019-01-15T09:45:21.723Z,93.20
2019-01-15T09:46:25.965Z,93.10
2019-01-15T09:47:30.893Z,93.10
2019-01-15T09:48:36.821Z,93.10
2019-01-15T09:49:41.073Z,93.00
2019-01-15T09:50:45.334Z,93.00
2019-01-15T09:51:49.574Z,92.90
2019-01-15T09:52:53.927Z,92.80
2019-01-15T09:53:58.154Z,92.80
2019-01-15T09:55:02.404Z,92.70
2019-01-15T09:56:06.798Z,92.70
2019-01-15T09:57:11.066Z,92.80
2019-01-15T09:58:15.382Z,92.80
2019-01-15T09:59:19.629Z,92.90
2019-01-15T10:00:23.882Z,92.90
2019-01-15T10:01:28.142Z,92.90
2019-01-15T10:02:32.393Z,93.00
2019-01-15T10:03:36.650Z,93.00
2019-01-15T10:04:41.686Z,93.00
2019-01-15T10:05:45.935Z,93.10
2019-01-15T10:06:50.177Z,93.10
2019-01-15T10:07:54.428Z,93.10
2019-01-15T10:08:58.674Z,93.20
2019-01-15T10:10:03.215Z,93.20
2019-01-15T10:11:07.535Z,93.30
2019-01-15T10:12:11.786Z,93.30
2019-01-15T10:13:16.048Z,93.40
2019-01-15T10:14:20.293Z,93.50
2019-01-15T10:15:24.635Z,93.50
2019-01-15T10:16:28.959Z,93.40
2019-01-15T10:17:33.217Z,93.40
2019-01-15T10:18:37.449Z,93.40
2019-01-15T10:19:41.701Z,93.40
2019-01-15T10:20:45.963Z,93.40
2019-01-15T10:21:50.307Z,93.50
2019-01-15T10:22:54.631Z,93.50
2019-01-15T10:23:58.879Z,93.50
2019-01-15T10:25:03.206Z,93.50
2019-01-15T10:26:07.536Z,93.50
2019-01-15T10:27:12.357Z,93.50
2019-01-15T10:28:16.698Z,93.50
2019-01-15T10:29:22.258Z,93.50
2019-01-15T10:30:59.194Z,93.50
2019-01-15T10:32:36.382Z,93.60
2019-01-15T10:33:45.617Z,93.70
2019-01-15T10:34:49.646Z,93.70
2019-01-15T10:35:56.651Z,93.80
2019-01-15T10:36:59.646Z,93.90
2019-01-15T10:38:04.190Z,93.80
2019-01-15T10:39:11.657Z,93.80
2019-01-15T10:40:15.907Z,93.90
2019-01-15T10:41:20.170Z,93.90
2019-01-15T10:42:24.414Z,93.90
2019-01-15T10:43:30.518Z,93.90
2019-01-15T10:44:34.778Z,93.90
2019-01-15T10:45:39.122Z,94.00
2019-01-15T10:46:43.370Z,94.10
2019-01-15T10:47:47.621Z,94.10
2019-01-15T10:48:51.873Z,94.00
2019-01-15T10:49:56.120Z,94.10
2019-01-15T10:51:00.382Z,94.00
2019-01-15T10:52:04.978Z,94.10
2019-01-15T10:53:09.302Z,94.20
2019-01-15T10:54:13.550Z,94.30
2019-01-15T10:55:17.799Z,94.70
2019-01-15T10:56:22.058Z,94.40
2019-01-15T10:57:26.385Z,94.20
2019-01-15T10:58:30.629Z,94.10
2019-01-15T10:59:34.895Z,93.90
2019-01-15T11:00:39.133Z,93.70
2019-01-15T11:01:43.396Z,93.70
2019-01-15T11:02:47.646Z,93.60
2019-01-15T11:03:51.898Z,93.60
2019-01-15T11:04:56.158Z,94.00
2019-01-15T11:06:00.475Z,93.60
2019-01-15T11:07:05.039Z,93.80
2019-01-15T11:08:09.467Z,93.90
2019-01-15T11:09:13.720Z,93.90
2019-01-15T11:10:18.042Z,93.80
2019-01-15T11:11:22.318Z,93.70
2019-01-15T11:12:26.562Z,93.60
2019-01-15T11:13:30.814Z,93.50
2019-01-15T11:14:35.475Z,93.40
2019-01-15T11:15:43.427Z,93.10
2019-01-15T11:16:45.756Z,93.10
2019-01-15T11:17:50.010Z,92.90
2019-01-15T11:18:54.272Z,92.90
2019-01-15T11:19:58.526Z,93.10
2019-01-15T11:21:02.849Z,93.10
2019-01-15T11:22:07.114Z,93.20
2019-01-15T11:23:11.367Z,93.30
2019-01-15T11:24:15.627Z,93.30
2019-01-15T11:25:19.870Z,93.30
2019-01-15T11:26:24.214Z,93.30
2019-01-15T11:27:28.475Z,93.40
2019-01-15T11:28:32.732Z,93.40
2019-01-15T11:29:36.982Z,93.40
2019-01-15T11:30:41.234Z,93.60
2019-01-15T11:31:45.488Z,93.60
2019-01-15T11:32:49.742Z,93.70
2019-01-15T11:33:54.082Z,93.80
2019-01-15T11:34:58.341Z,93.80
2019-01-15T11:36:02.581Z,93.70
2019-01-15T11:37:06.830Z,93.80
2019-01-15T11:38:11.091Z,93.80
2019-01-15T11:39:15.342Z,93.70
2019-01-15T11:40:20.034Z,93.80
2019-01-15T11:41:24.287Z,93.80
2019-01-15T11:42:28.619Z,93.90
2019-01-15T11:43:32.862Z,93.90
2019-01-15T11:44:37.152Z,93.90
2019-01-15T11:45:41.523Z,93.90
2019-01-15T11:46:45.769Z,93.90
2019-01-15T11:47:50.597Z,94.30
2019-01-15T11:48:55.296Z,93.90
2019-01-15T11:49:59.553Z,94.10
2019-01-15T11:51:03.878Z,93.90
2019-01-15T11:52:08.194Z,94.10
2019-01-15T11:53:12.446Z,94.10
2019-01-15T11:54:16.694Z,94.10
2019-01-15T11:55:21.385Z,94.10
2019-01-15T11:56:25.830Z,94.00
2019-01-15T11:57:30.074Z,94.10
2019-01-15T11:58:34.510Z,94.10
2019-01-15T11:59:38.767Z,94.10
2019-01-15T12:00:50.258Z,94.20
2019-01-15T12:02:06.690Z,94.10
2019-01-15T12:03:33.214Z,94.10
2019-01-15T12:04:54.830Z,94.10
2019-01-15T12:06:16.925Z,94.10
2019-01-15T12:07:46.584Z,94.10
2019-01-15T12:09:04.899Z,94.00
2019-01-15T12:10:23.575Z,94.00
2019-01-15T12:11:38.340Z,94.10
2019-01-15T12:13:00.504Z,94.00
2019-01-15T12:14:42.183Z,94.00
2019-01-15T12:15:56.966Z,94.00
2019-01-15T12:17:18.937Z,94.00
2019-01-15T12:18:45.114Z,94.10
2019-01-15T12:19:58.510Z,93.90
2019-01-15T12:21:18.646Z,93.90
2019-01-15T12:22:48.017Z,94.00
2019-01-15T12:24:15.864Z,94.10
2019-01-15T12:25:38.808Z,94.10
2019-01-15T12:26:53.262Z,94.10
2019-01-15T12:28:19.378Z,94.10
2019-01-15T12:29:45.884Z,94.00
2019-01-15T12:31:07.506Z,93.90
2019-01-15T12:32:29.346Z,93.90
2019-01-15T12:33:51.603Z,94.00
2019-01-15T12:35:07.902Z,94.20
2019-01-15T12:36:34.284Z,94.20
2019-01-15T12:38:03.965Z,94.20
2019-01-15T12:39:42.942Z,94.30
2019-01-15T12:41:15.343Z,94.30
2019-01-15T12:42:47.334Z,94.30
2019-01-15T12:44:09.113Z,94.30
2019-01-15T12:45:32.313Z,94.30
2019-01-15T12:46:54.426Z,94.40
2019-01-15T12:48:19.058Z,94.30
2019-01-15T12:49:40.832Z,94.30
2019-01-15T12:51:19.487Z,94.20
2019-01-15T12:52:39.686Z,94.30
2019-01-15T12:54:01.455Z,94.30
2019-01-15T12:55:23.226Z,94.10
2019-01-15T12:56:46.575Z,94.10
2019-01-15T12:58:14.621Z,94.00
2019-01-15T12:59:36.499Z,94.20
2019-01-15T13:01:01.466Z,94.20
2019-01-15T13:02:23.254Z,94.30
2019-01-15T13:03:52.474Z,94.40
2019-01-15T13:05:05.715Z,94.30
2019-01-15T13:06:20.733Z,94.40
2019-01-15T13:07:54.890Z,94.40
2019-01-15T13:09:16.858Z,94.50
2019-01-15T13:10:38.872Z,94.60
2019-01-15T13:12:05.243Z,94.70
2019-01-15T13:13:27.118Z,94.80
2019-01-15T13:14:50.140Z,94.80
2019-01-15T13:16:07.100Z,94.90
2019-01-15T13:17:33.458Z,94.90
2019-01-15T13:18:51.807Z,95.00
2019-01-15T13:20:10.669Z,95.10
2019-01-15T13:21:36.787Z,95.10
2019-01-15T13:22:50.095Z,95.20
2019-01-15T13:24:25.335Z,95.20
2019-01-15T13:25:46.987Z,95.30
2019-01-15T13:27:13.494Z,95.40
2019-01-15T13:28:23.726Z,95.40
2019-01-15T13:29:45.546Z,95.40
2019-01-15T13:31:04.775Z,95.50
2019-01-15T13:32:26.596Z,95.50
2019-01-15T13:33:47.690Z,95.50
2019-01-15T13:35:16.534Z,95.60
2019-01-15T13:36:39.880Z,95.70
2019-01-15T13:38:03.298Z,95.70
2019-01-15T13:39:36.342Z,96.20
2019-01-15T13:40:52.132Z,95.90
2019-01-15T13:42:13.546Z,95.90
2019-01-15T13:43:35.339Z,95.90
2019-01-15T13:44:57.970Z,95.90
2019-01-15T13:46:21.322Z,95.90
2019-01-15T13:47:44.624Z,95.90
2019-01-15T13:49:16.554Z,95.90
2019-01-15T13:50:38.619Z,95.90
2019-01-15T13:52:00.478Z,96.00
2019-01-15T13:53:17.959Z,96.10
2019-01-15T13:54:32.870Z,96.00
2019-01-15T13:55:54.922Z,96.00
2019-01-15T13:57:27.329Z,96.10
2019-01-15T13:58:49.065Z,96.10
2019-01-15T14:00:08.082Z,96.10
2019-01-15T14:01:20.646Z,96.00
2019-01-15T14:02:42.598Z,96.10
2019-01-15T14:04:05.947Z,96.20
2019-01-15T14:05:38.606Z,96.20
2019-01-15T14:07:04.842Z,96.10
2019-01-15T14:08:24.798Z,96.20
2019-01-15T14:10:06.143Z,96.20
2019-01-15T14:11:32.222Z,96.20
2019-01-15T14:12:53.863Z,96.20
2019-01-15T14:14:20.056Z,96.30
2019-01-15T14:15:49.327Z,96.30
2019-01-15T14:17:15.579Z,96.30
2019-01-15T14:18:45.022Z,96.30
2019-01-15T14:20:10.703Z,96.30
2019-01-15T14:21:32.769Z,96.30
2019-01-15T14:23:08.401Z,96.20
2019-01-15T14:24:30.556Z,96.30